Thurles, Ireland
Current Conditions -  °F | °C
As of 9:30 AM on Sunday 26 Oct 2014 (Local Time) from EIWF Reporting Station
Broken Clouds Broken Clouds  
Wind Chill: 55°   Ceiling: 3600
Heat Index: 55°   Visibility: 6mi
Dew Point: 50°   Wind: 21mph
Humidity: 82%   Direction: 250°WSW
Pressure: 29.94"   Gusts: 32mph
Location:  52.68°N, 7.48°W
Report Text: EIWF 260830Z 25018G28KT 220V290 9999 FEW030 BKN036 13/10 Q1014
Loading
Personal Weather Stations






























Interactive Weather Map
Tropical Storm Tracking
New forecast layout! Learn more

10-Day Weather Forecast

Advertisements
Track Severe Weather on mobile